Henderson, CO (80640)

10:56 AM MST on February 14, 2016 (GMT -0700)
Werner Ent. Denver | | Change Station
CLOSE
Current Station
Personal Weather Station
Location: Henderson, CO
Elevation: 5109 ft
Nearby Weather Stations

Elev 5109 ft 39.86 °N, 104.91 °W | Updated 2 seconds ago

Partly Cloudy
Partly Cloudy
53.1 °F
Feels Like 53.1 °F
N
3.0
Wind Variable Wind from ENE
Gusts 12.0 mph

Today
High -- | Low -- °F
--% Chance of Precip.
Yesterday
High -- | Low -- °F
Precip. -- in
Pressure 29.84 in
Visibility 10.0 miles
Clouds Few 8000 ft
Scattered Clouds 12000 ft
Mostly Cloudy 20000 ft
Dew Point 24 °F
Humidity 32%
Rainfall 0.00 in
Snow Depth Not available.
6:53 AM 5:34 PM
Waxing Crescent, 44% visible
METAR KDEN 141753Z 35013KT 10SM FEW080 SCT120 BKN200 10/M07 A2990 RMK AO2 SLP104 T01001072 10111 21011 53002
Pressure 29.84 in
Visibility 10.0 miles
Clouds Few 8000 ft
Scattered Clouds 12000 ft
Mostly Cloudy 20000 ft
Dew Point 24 °F
Humidity 32%
Rainfall 0.00 in
Snow Depth Not available.
6:53 AM 5:34 PM
Waxing Crescent, 44% visible
METAR KDEN 141753Z 35013KT 10SM FEW080 SCT120 BKN200 10/M07 A2990 RMK AO2 SLP104 T01001072 10111 21011 53002

10-Day Weather Forecast

Almanac

Astronomy

Feb. 14, 2016 Rise Set
Actual Time
Civil Twilight
Nautical Twilight
Astronomical Twilight
Moon
Length of Visible Light
Length of Day
Tomorrow will be .
, % of the Moon is Illuminated

Today's Extremes

State Highs State Lows

Community

WunderPhotos

Upload Photos

1,892,860 photos uploaded!

WunderBlog® & News

Nearby

Air Quality

  Air Quality AQ Index Pollutant
Not available.

Snow Depth

Station Depth Elevation

Earthquake Activity

City Distance Mag. Time & Date
Minimum magnitude displayed is 2.5.

Coastal Water Temperatures

Place Temperature

Stations

Nearby Weather Stations

Station Location Temp. Windchill Dew Point Humidity Wind Precip. Elev Updated Type
                   

Watches & Warnings

There are currently no watches in effect.